Weather History for KSOA - March, 2014

Change the Weather History Date:

Thursday, March 27, 2014

  Actual Average (KOZA) Record (KOZA)
Temperature  
Mean Temperature 72 °F -  
Max Temperature 84 °F 73 °F 86 °F (2014)
Min Temperature 60 °F 47 °F 33 °F (2015)
Cooling Degree Days 7    
Growing Degree Days 22 (Base 50)    
Moisture  
Dew Point 49 °F    
Average Humidity 58    
Maximum Humidity 100    
Minimum Humidity 16    
Precipitation  
Precipitation 0.00 in - - ()
Sea Level Pressure  
Sea Level Pressure 29.82 in    
Wind  
Wind Speed 12 mph (SSW)    
Max Wind Speed 21 mph    
Max Gust Speed 29 mph    
Visibility 10 miles    
Events      
Averages and records for this station are not official NWS values.
T = Trace of Precipitation, MM = Missing Value Source: NWS Daily Summary

Daily Weather History Graph

Daily Weather History Graph

Search for Another Location

Airport or City:

Trip Planner

Search our weather history database for the weather conditions in past years. The results will help you decide how hot, cold, wet, or windy it might be!

Date:

Astronomy

Mar. 27, 2014 Rise Set
Actual Time 7:37 AM CDT 7:58 PM CDT
Civil Twilight 7:13 AM CDT 8:22 PM CDT
Nautical Twilight 6:45 AM CDT 8:50 PM CDT
Astronomical Twilight 6:16 AM CDT 9:19 PM CDT
Moon 5:16 AM CDT (3/27) 4:59 PM CDT (3/27)
Length of Visible Light 13h 09m
Length of Day
12h 20m
Waning Crescent, 13% of the Moon is Illuminated
Mar 27
Waning Crescent
Mar 30
New
Apr 7
First Quarter
Apr 15
Full
Apr 22
Last Quarter

Hourly Weather History & Observations

Time (CDT) Temp. Dew Point Humidity Pressure Visibility Wind Dir Wind Speed Gust Speed Precip Events Conditions
12:15 AM 60.8 °F 57.2 °F 88% 29.87 in 10.0 mi South 18.4 mph 23.0 mph N/A   Overcast
12:35 AM 60.8 °F 57.2 °F 88% 29.87 in 10.0 mi South 20.7 mph 28.8 mph N/A   Overcast
12:55 AM 60.8 °F 57.2 °F 88% 29.86 in 10.0 mi South 17.3 mph 23.0 mph N/A   Overcast
1:15 AM 60.8 °F 57.2 °F 88% 29.86 in 10.0 mi South 15.0 mph 23.0 mph N/A   Overcast
1:35 AM 60.8 °F 57.2 °F 88% 29.85 in 10.0 mi South 19.6 mph 25.3 mph N/A   Overcast
1:55 AM 60.8 °F 57.2 °F 88% 29.85 in 10.0 mi South 18.4 mph 24.2 mph N/A   Overcast
2:15 AM 60.8 °F 57.2 °F 88% 29.84 in 10.0 mi South 17.3 mph 26.5 mph N/A   Overcast
2:35 AM 60.8 °F 57.2 °F 88% 29.83 in 10.0 mi South 15.0 mph 23.0 mph N/A   Overcast
2:55 AM 60.8 °F 57.2 °F 88% 29.83 in 10.0 mi South 13.8 mph - N/A   Overcast
3:15 AM 60.8 °F 59.0 °F 94% 29.83 in 10.0 mi South 15.0 mph - N/A   Overcast
3:35 AM 60.8 °F 59.0 °F 94% 29.82 in 10.0 mi South 12.7 mph - N/A   Overcast
3:55 AM 60.8 °F 59.0 °F 94% 29.82 in 8.0 mi South 12.7 mph 18.4 mph N/A   Overcast
4:15 AM 60.8 °F 60.8 °F 100% 29.82 in 10.0 mi South 11.5 mph 16.1 mph N/A   Overcast
4:35 AM 60.8 °F 60.8 °F 100% 29.81 in 10.0 mi South 12.7 mph - N/A   Overcast
4:55 AM 60.8 °F 60.8 °F 100% 29.80 in 9.0 mi South 11.5 mph - N/A   Overcast
5:15 AM 60.8 °F 60.8 °F 100% 29.80 in 10.0 mi South 11.5 mph 20.7 mph N/A   Overcast
5:35 AM 60.8 °F 60.8 °F 100% 29.79 in 10.0 mi South 15.0 mph - N/A   Overcast
5:55 AM 60.8 °F 60.8 °F 100% 29.79 in 10.0 mi SSW 13.8 mph - N/A   Overcast
6:15 AM 62.6 °F 60.8 °F 94% 29.80 in 10.0 mi SSW 12.7 mph - N/A   Overcast
6:35 AM 62.6 °F 60.8 °F 94% 29.80 in 10.0 mi South 13.8 mph 18.4 mph N/A   Overcast
6:55 AM 62.6 °F 60.8 °F 94% 29.81 in 10.0 mi SSW 9.2 mph - N/A   Overcast
7:15 AM 62.6 °F 60.8 °F 94% 29.82 in 10.0 mi SSW 13.8 mph - N/A   Overcast
7:35 AM 62.6 °F 60.8 °F 94% 29.83 in 10.0 mi SSW 11.5 mph 17.3 mph N/A   Overcast
7:55 AM 62.6 °F 60.8 °F 94% 29.84 in 10.0 mi SSW 10.4 mph - N/A   Overcast
8:15 AM 62.6 °F 60.8 °F 94% 29.84 in 10.0 mi SSW 11.5 mph - N/A   Overcast
8:35 AM 62.6 °F 60.8 °F 94% 29.85 in 10.0 mi SSW 12.7 mph - N/A   Mostly Cloudy
8:55 AM 62.6 °F 60.8 °F 94% 29.85 in 10.0 mi SSW 15.0 mph 19.6 mph N/A   Scattered Clouds
9:15 AM 62.6 °F 60.8 °F 94% 29.86 in 10.0 mi SSW 12.7 mph 19.6 mph N/A   Scattered Clouds
9:35 AM 64.4 °F 59.0 °F 83% 29.87 in 10.0 mi SSW 11.5 mph - N/A   Scattered Clouds
9:55 AM 64.4 °F 59.0 °F 83% 29.87 in 10.0 mi SSW 12.7 mph 18.4 mph N/A   Scattered Clouds
10:15 AM 66.2 °F 57.2 °F 73% 29.87 in 10.0 mi South 13.8 mph - N/A   Mostly Cloudy
10:35 AM 68.0 °F 57.2 °F 68% 29.88 in 10.0 mi SSW 9.2 mph 19.6 mph N/A   Scattered Clouds
10:55 AM 68.0 °F 57.2 °F 68% 29.88 in 10.0 mi SSW 11.5 mph 17.3 mph N/A   Partly Cloudy
11:15 AM 69.8 °F 57.2 °F 64% 29.88 in 10.0 mi WSW 11.5 mph 18.4 mph N/A   Clear
11:35 AM 71.6 °F 57.2 °F 60% 29.88 in 10.0 mi SSW 10.4 mph 18.4 mph N/A   Clear
11:55 AM 73.4 °F 55.4 °F 53% 29.88 in 10.0 mi SSW 9.2 mph 16.1 mph N/A   Clear
12:15 PM 73.4 °F 55.4 °F 53% 29.87 in 10.0 mi South 11.5 mph - N/A   Clear
12:35 PM 75.2 °F 53.6 °F 47% 29.87 in 10.0 mi SSW 10.4 mph 19.6 mph N/A   Clear
12:55 PM 77.0 °F 51.8 °F 41% 29.86 in 10.0 mi WSW 8.1 mph 16.1 mph N/A   Clear
1:15 PM 78.8 °F 50.0 °F 36% 29.86 in 10.0 mi WSW 10.4 mph - N/A   Clear
1:35 PM 78.8 °F 46.4 °F 32% 29.84 in 10.0 mi SSW 8.1 mph - N/A   Clear
1:55 PM 80.6 °F 44.6 °F 28% 29.83 in 10.0 mi South 12.7 mph - N/A   Clear
2:15 PM 80.6 °F 41.0 °F 24% 29.83 in 10.0 mi WSW 9.2 mph 16.1 mph N/A   Clear
2:35 PM 82.4 °F 41.0 °F 23% 29.82 in 10.0 mi SW 8.1 mph - N/A   Clear
2:55 PM 82.4 °F 39.2 °F 21% 29.81 in 10.0 mi WSW 9.2 mph - N/A   Clear
3:15 PM 82.4 °F 37.4 °F 20% 29.80 in 10.0 mi WSW 5.8 mph - N/A   Clear
3:35 PM 82.4 °F 35.6 °F 19% 29.79 in 10.0 mi WNW 4.6 mph - N/A   Clear
3:55 PM 84.2 °F 37.4 °F 19% 29.78 in 10.0 mi WSW 11.5 mph 17.3 mph N/A   Clear
4:15 PM 84.2 °F 35.6 °F 18% 29.78 in 10.0 mi WSW 4.6 mph - N/A   Clear
4:35 PM 84.2 °F 37.4 °F 19% 29.78 in 10.0 mi WNW 9.2 mph - N/A   Clear
4:55 PM 82.4 °F 37.4 °F 20% 29.77 in 10.0 mi SSW 5.8 mph - N/A   Clear
5:15 PM 84.2 °F 37.4 °F 19% 29.77 in 10.0 mi WSW 6.9 mph - N/A   Clear
5:35 PM 84.2 °F 37.4 °F 19% 29.76 in 10.0 mi Calm Calm - N/A   Clear
5:55 PM 84.2 °F 35.6 °F 18% 29.76 in 10.0 mi West 9.2 mph - N/A   Clear
6:15 PM 84.2 °F 35.6 °F 18% 29.75 in 10.0 mi SW 3.5 mph - N/A   Clear
6:35 PM 84.2 °F 33.8 °F 16% 29.76 in 10.0 mi WSW 3.5 mph - N/A   Clear
6:55 PM 84.2 °F 33.8 °F 16% 29.76 in 10.0 mi Calm Calm - N/A   Clear
7:15 PM 82.4 °F 33.8 °F 17% 29.76 in 10.0 mi WSW 6.9 mph - N/A   Clear
7:35 PM 82.4 °F 35.6 °F 19% 29.76 in 10.0 mi SW 3.5 mph - N/A   Clear
7:55 PM 78.8 °F 35.6 °F 21% 29.77 in 10.0 mi SSW 3.5 mph - N/A   Clear
8:15 PM 75.2 °F 37.4 °F 25% 29.77 in 10.0 mi SSW 3.5 mph - N/A   Clear
8:35 PM 73.4 °F 37.4 °F 27% 29.78 in 10.0 mi Calm Calm - N/A   Clear
8:55 PM 69.8 °F 37.4 °F 31% 29.78 in 10.0 mi Calm Calm - N/A   Clear
9:15 PM 66.2 °F 37.4 °F 35% 29.79 in 10.0 mi Calm Calm - N/A   Clear
9:35 PM 64.4 °F 37.4 °F 37% 29.80 in 10.0 mi NNE 3.5 mph - N/A   Clear
9:55 PM 62.6 °F 39.2 °F 42% 29.81 in 10.0 mi Calm Calm - N/A   Clear
10:15 PM 62.6 °F 37.4 °F 39% 29.81 in 10.0 mi North - - N/A   Clear
10:35 PM 62.6 °F 37.4 °F 39% 29.82 in 10.0 mi Calm Calm - N/A   Clear
10:55 PM 62.6 °F 37.4 °F 39% 29.82 in 10.0 mi Calm Calm - N/A   Clear
11:15 PM 60.8 °F 39.2 °F 45% 29.83 in 10.0 mi Calm Calm - N/A   Clear
11:35 PM 60.8 °F 41.0 °F 48% 29.83 in 10.0 mi Calm Calm - N/A   Clear
11:55 PM 60.8 °F 41.0 °F 48% 29.82 in 10.0 mi Calm Calm - N/A   Clear